Time;durP1;ratioP1;P1;durP2;ratioP2;P2;SDS_P1;SDS_P2;PMS_P1;PMS_P2;Temp;Humidity;BMP_temperature;BMP_pressure;BME280_temperature;BME280_humidity;BME280_pressure;Samples;Min_cycle;Max_cycle;Signal;HPM_P1;HPM_P2
2022/03/03 00:01:10;;;;;;;;;67.00;50.25;;;;;11.58;52.65;101268.56;5117975;27;45364;-76
2022/03/03 00:03:36;;;;;;;;;70.50;50.25;;;;;11.59;51.98;101266.78;5114014;27;45420;-76
2022/03/03 00:06:01;;;;;;;;;65.25;48.75;;;;;11.44;52.47;101240.47;5096077;27;45549;-79
2022/03/03 00:08:27;;;;;;;;;66.25;51.75;;;;;11.34;52.11;101220.56;5096000;27;45576;-75
2022/03/03 00:10:52;;;;;;;;;70.00;51.00;;;;;11.52;51.89;101255.00;5095198;27;46233;-80
2022/03/03 00:13:17;;;;;;;;;67.25;54.00;;;;;11.46;52.23;101244.09;5095534;27;45318;-74
2022/03/03 00:15:43;;;;;;;;;66.50;51.00;;;;;11.56;52.46;101256.88;5095777;27;45631;-80
2022/03/03 00:18:08;;;;;;;;;56.75;48.25;;;;;11.51;52.41;101255.84;5099390;27;45619;-80
2022/03/03 00:20:33;;;;;;;;;66.25;51.50;;;;;11.34;52.19;101209.84;5112232;27;45354;-73
2022/03/03 00:22:59;;;;;;;;;67.75;51.00;;;;;11.36;52.57;101213.47;5099116;27;45301;-78
2022/03/03 00:25:24;;;;;;;;;66.75;53.25;;;;;11.52;52.49;101251.41;5105978;27;45384;-79
2022/03/03 00:27:50;;;;;;;;;70.00;53.75;;;;;11.32;53.37;101216.00;5099686;27;45307;-79
2022/03/03 00:30:15;;;;;;;;;65.75;52.50;;;;;11.49;52.83;101254.88;5098848;27;45537;-78
2022/03/03 00:32:41;;;;;;;;;67.50;52.50;;;;;11.49;53.22;101248.66;5099052;27;45464;-81
2022/03/03 00:35:08;;;;;;;;;68.25;52.50;;;;;11.14;53.24;101200.31;5098807;27;45284;-76
2022/03/03 00:37:34;;;;;;;;;69.75;53.75;;;;;11.46;53.15;101257.47;5099241;27;45485;-76
2022/03/03 00:39:59;;;;;;;;;69.50;54.00;;;;;10.90;53.48;101165.69;5116670;27;45892;-73
2022/03/03 00:42:24;;;;;;;;;78.50;57.25;;;;;11.35;53.44;101254.47;5118187;27;45341;-77
2022/03/03 00:44:50;;;;;;;;;63.75;49.50;;;;;11.28;53.17;101252.44;5118682;27;45386;-78
2022/03/03 00:47:15;;;;;;;;;72.50;52.75;;;;;11.02;53.61;101200.81;5118461;27;45631;-75
2022/03/03 00:49:40;;;;;;;;;71.50;53.50;;;;;11.39;53.37;101260.81;5118473;27;45496;-76
2022/03/03 00:52:06;;;;;;;;;71.25;51.75;;;;;11.29;53.19;101248.03;5109221;27;45403;-77
2022/03/03 00:54:31;;;;;;;;;56.25;45.75;;;;;11.38;53.66;101265.28;5098907;27;45336;-79
2022/03/03 00:56:57;;;;;;;;;62.25;46.25;;;;;11.22;52.95;101236.22;5081296;27;45825;-80
2022/03/03 00:59:22;;;;;;;;;67.75;53.25;;;;;11.27;53.21;101231.94;5102717;27;45422;-80
2022/03/03 01:01:48;;;;;;;;;77.25;53.50;;;;;11.34;53.78;101257.09;5089361;27;45828;-79
2022/03/03 01:04:13;;;;;;;;;71.00;53.50;;;;;11.36;53.48;101272.31;5120577;27;45648;-78
2022/03/03 01:06:39;;;;;;;;;74.75;55.25;;;;;11.09;53.20;101218.88;5119154;27;45514;-80
2022/03/03 01:09:05;;;;;;;;;66.50;51.50;;;;;11.29;53.09;101256.94;5117976;27;45481;-78
2022/03/03 01:11:30;;;;;;;;;72.00;51.75;;;;;11.15;53.62;101232.47;5118235;27;45320;-80
2022/03/03 01:13:56;;;;;;;;;64.50;51.00;;;;;11.24;53.79;101253.22;5117475;27;45350;-78
2022/03/03 01:16:21;;;;;;;;;67.75;52.25;;;;;11.31;53.37;101265.03;5118254;27;45426;-78
2022/03/03 01:18:46;;;;;;;;;67.50;53.25;;;;;11.26;54.30;101259.53;5117275;27;45348;-77
2022/03/03 01:21:12;;;;;;;;;66.50;54.25;;;;;11.00;53.78;101214.13;5117229;27;45283;-80
2022/03/03 01:23:37;;;;;;;;;66.25;45.75;;;;;11.08;53.52;101222.41;5117003;27;45500;-77
2022/03/03 01:26:03;;;;;;;;;71.00;53.25;;;;;11.29;54.16;101264.06;5117226;27;45230;-78
2022/03/03 01:28:28;;;;;;;;;70.00;52.75;;;;;11.29;54.28;101266.75;5097690;27;45302;-74
2022/03/03 01:30:53;;;;;;;;;71.25;52.75;;;;;11.29;53.75;101248.94;5097253;27;45477;-78
2022/03/03 01:33:19;;;;;;;;;67.25;53.00;;;;;11.08;53.77;101225.06;5097616;27;45459;-78
2022/03/03 01:35:44;;;;;;;;;66.75;52.50;;;;;11.32;53.59;101249.03;5108001;27;45744;-76
2022/03/03 01:38:10;;;;;;;;;70.25;51.00;;;;;11.15;53.96;101207.47;5117329;27;46436;-77
2022/03/03 01:40:36;;;;;;;;;68.00;51.00;;;;;11.34;54.24;101241.06;5101021;27;45491;-78
2022/03/03 01:43:04;;;;;;;;;58.75;48.25;;;;;11.20;54.19;101211.19;5097552;27;45471;-80
2022/03/03 01:45:29;;;;;;;;;62.25;48.00;;;;;11.18;53.41;101216.47;5097669;27;45440;-80
2022/03/03 01:47:55;;;;;;;;;65.50;49.00;;;;;11.38;53.99;101237.59;5097206;27;45964;-79
2022/03/03 01:50:20;;;;;;;;;63.25;50.25;;;;;11.32;54.40;101232.03;5097526;27;45256;-80
2022/03/03 01:52:46;;;;;;;;;62.25;48.25;;;;;11.32;54.29;101219.59;5097668;27;45503;-79
2022/03/03 01:55:11;;;;;;;;;63.75;49.00;;;;;11.40;54.56;101241.22;5097366;27;45299;-80
2022/03/03 01:57:37;;;;;;;;;60.25;49.00;;;;;11.42;53.86;101231.50;5098033;27;46221;-80
2022/03/03 02:00:06;;;;;;;;;67.00;48.50;;;;;11.47;54.37;101232.53;5098657;27;45392;-79
2022/03/03 02:02:31;;;;;;;;;68.75;53.00;;;;;11.49;54.17;101236.16;5101120;27;45486;-79
2022/03/03 02:04:57;;;;;;;;;66.25;50.50;;;;;11.51;54.09;101229.09;5100299;27;45498;-80
2022/03/03 02:07:22;;;;;;;;;65.50;52.00;;;;;11.48;54.24;101215.59;5111020;27;46395;-81
2022/03/03 02:09:48;;;;;;;;;68.75;51.75;;;;;11.55;54.56;101230.06;5116878;27;45444;-81
2022/03/03 02:12:16;;;;;;;;;60.50;47.25;;;;;11.34;54.55;101187.56;5116615;27;45606;-79
2022/03/03 02:14:44;;;;;;;;;57.50;46.25;;;;;11.48;54.37;101210.25;5117168;27;45633;-80
2022/03/03 02:17:10;;;;;;;;;57.25;47.75;;;;;11.44;54.55;101205.69;5098368;27;48397;-79
2022/03/03 02:19:36;;;;;;;;;68.50;52.00;;;;;11.52;54.75;101228.22;5116577;27;45486;-78
2022/03/03 02:22:01;;;;;;;;;62.00;48.50;;;;;11.15;54.52;101153.97;5116958;27;45474;-79
2022/03/03 02:24:26;;;;;;;;;62.50;49.50;;;;;11.28;54.94;101184.69;5105336;27;45639;-75
2022/03/03 02:26:53;;;;;;;;;58.75;48.00;;;;;11.59;54.67;101232.00;5096893;27;46475;-80
2022/03/03 02:29:19;;;;;;;;;66.50;50.00;;;;;11.61;54.61;101230.25;5096737;27;45468;-74
2022/03/03 02:31:45;;;;;;;;;66.25;49.75;;;;;11.61;55.15;101244.56;5096560;27;45311;-80
2022/03/03 02:34:11;;;;;;;;;61.50;46.25;;;;;11.53;55.04;101218.44;5107278;27;45315;-78
2022/03/03 02:36:37;;;;;;;;;67.75;48.25;;;;;11.60;55.08;101228.47;5116692;27;46210;-81
2022/03/03 02:39:05;;;;;;;;;66.75;50.75;;;;;11.59;55.39;101222.19;5115220;27;45244;-79
2022/03/03 02:41:31;;;;;;;;;60.75;46.75;;;;;11.42;54.80;101207.41;5099769;27;45387;-79
2022/03/03 02:43:59;;;;;;;;;63.00;49.25;;;;;11.62;54.85;101216.03;5097069;27;45453;-79
2022/03/03 02:46:24;;;;;;;;;60.00;46.25;;;;;11.67;55.14;101213.50;5096731;27;46083;-80
2022/03/03 02:48:50;;;;;;;;;66.25;49.00;;;;;11.34;55.15;101158.13;5112895;27;45445;-80
2022/03/03 02:51:16;;;;;;;;;60.50;47.75;;;;;11.61;54.68;101195.47;5116220;27;45510;-79
2022/03/03 02:53:41;;;;;;;;;58.25;47.00;;;;;11.67;54.69;101205.47;5084502;27;45453;-76
2022/03/03 02:56:07;;;;;;;;;61.50;48.25;;;;;11.68;54.94;101204.59;5115663;27;47174;-80
2022/03/03 02:58:33;;;;;;;;;62.00;47.75;;;;;11.62;54.85;101184.81;5116422;27;46124;-77
2022/03/03 03:01:00;;;;;;;;;65.00;48.50;;;;;11.72;55.43;101193.13;5116843;27;45363;-80
2022/03/03 03:03:26;;;;;;;;;61.75;47.25;;;;;11.61;55.51;101185.69;5100333;27;44845;-80
2022/03/03 03:05:51;;;;;;;;;56.25;45.50;;;;;11.74;55.94;101194.06;5117002;27;45566;-81
2022/03/03 03:08:17;;;;;;;;;58.50;47.25;;;;;11.73;55.17;101193.16;5105883;27;45305;-80
2022/03/03 03:10:42;;;;;;;;;60.25;47.00;;;;;11.73;55.64;101187.81;5096685;27;45428;-76
2022/03/03 03:13:11;;;;;;;;;66.75;47.75;;;;;11.69;56.23;101185.91;5109344;27;45401;-80
2022/03/03 03:15:36;;;;;;;;;63.50;48.50;;;;;11.55;55.72;101153.41;5095722;27;45350;-80
2022/03/03 03:18:17;;;;;;;;;66.00;50.50;;;;;11.51;56.33;101159.50;5102132;27;45382;-76
2022/03/03 03:20:45;;;;;;;;;66.50;49.00;;;;;11.61;55.73;101177.66;5109600;27;45551;-80
2022/03/03 03:23:16;;;;;;;;;67.00;49.50;;;;;11.49;55.92;101165.69;5110137;27;45329;-80
2022/03/03 03:25:43;;;;;;;;;67.50;50.00;;;;;11.58;55.62;101169.56;5115125;27;46127;-81
2022/03/03 03:28:10;;;;;;;;;66.50;50.50;;;;;11.50;56.26;101160.38;5115590;27;45739;-79
2022/03/03 03:30:36;;;;;;;;;62.50;47.50;;;;;11.59;56.78;101165.09;5114660;27;45424;-79
2022/03/03 03:33:01;;;;;;;;;56.50;46.50;;;;;11.40;56.34;101140.47;5110018;27;45455;-80
2022/03/03 03:35:27;;;;;;;;;62.75;48.75;;;;;11.32;56.05;101125.03;5108626;27;45486;-78
2022/03/03 03:37:52;;;;;;;;;58.50;47.50;;;;;11.50;56.73;101149.69;5095679;27;45448;-75
2022/03/03 03:40:18;;;;;;;;;64.75;50.00;;;;;11.43;55.93;101145.94;5095426;27;45356;-82
2022/03/03 03:42:43;;;;;;;;;67.75;50.00;;;;;11.50;56.16;101156.78;5097610;27;45578;-79
2022/03/03 03:45:12;;;;;;;;;62.00;48.75;;;;;11.50;56.08;101157.72;5108868;27;46183;-77
2022/03/03 03:47:38;;;;;;;;;64.50;48.75;;;;;11.40;56.35;101139.56;5095193;27;45598;-79
2022/03/03 03:50:05;;;;;;;;;61.50;48.50;;;;;11.14;56.25;101080.88;5095237;27;45295;-79
2022/03/03 03:52:31;;;;;;;;;63.75;51.75;;;;;11.45;56.30;101132.59;5098140;27;45642;-79
2022/03/03 03:54:58;;;;;;;;;60.00;46.75;;;;;11.61;56.79;101152.66;5104731;27;46120;-80
2022/03/03 03:57:23;;;;;;;;;61.00;49.00;;;;;11.62;56.25;101151.81;5118917;27;45302;-80
2022/03/03 03:59:49;;;;;;;;;59.00;45.25;;;;;11.55;56.79;101128.38;5101290;27;45469;-81
2022/03/03 04:02:14;;;;;;;;;62.25;49.00;;;;;11.48;57.25;101118.38;5112562;27;45638;-80
2022/03/03 04:04:39;;;;;;;;;64.00;49.50;;;;;11.62;56.65;101144.66;5120208;27;45591;-81
2022/03/03 04:07:05;;;;;;;;;59.50;47.75;;;;;11.52;56.97;101129.22;5122147;27;45564;-72
2022/03/03 04:09:30;;;;;;;;;64.50;47.50;;;;;11.61;57.38;101137.53;5122439;27;45404;-78
2022/03/03 04:11:55;;;;;;;;;59.25;47.25;;;;;11.63;56.74;101134.88;5110128;27;45447;-77
2022/03/03 04:14:21;;;;;;;;;59.00;46.75;;;;;11.34;57.49;101081.44;5099815;27;45508;-73
2022/03/03 04:16:46;;;;;;;;;61.00;46.50;;;;;11.65;57.72;101134.91;5099631;27;45494;-81
2022/03/03 04:19:11;;;;;;;;;59.00;45.50;;;;;11.62;57.97;101142.00;5099460;27;45402;-79
2022/03/03 04:21:37;;;;;;;;;61.75;48.00;;;;;11.47;58.01;101108.56;5099452;27;45383;-81
2022/03/03 04:24:02;;;;;;;;;62.50;47.00;;;;;11.57;57.85;101113.31;5098599;27;45460;-76
2022/03/03 04:26:28;;;;;;;;;53.50;42.50;;;;;11.14;58.19;101062.16;5094337;27;45695;-79
2022/03/03 04:28:54;;;;;;;;;56.75;45.50;;;;;11.26;59.03;101077.66;5099062;27;45494;-81
2022/03/03 04:31:19;;;;;;;;;55.25;45.00;;;;;11.39;59.03;101106.56;5105959;27;45389;-80
2022/03/03 04:33:45;;;;;;;;;65.50;49.75;;;;;11.31;58.63;101078.69;5118304;27;45578;-80
2022/03/03 04:36:11;;;;;;;;;60.25;46.25;;;;;11.52;58.73;101114.94;5117932;27;45309;-81
2022/03/03 04:38:36;;;;;;;;;60.75;47.00;;;;;11.51;58.87;101105.09;5118120;27;45414;-81
2022/03/03 04:41:01;;;;;;;;;59.00;45.50;;;;;11.48;58.19;101103.22;5118652;27;45233;-82
2022/03/03 04:43:27;;;;;;;;;57.00;46.75;;;;;11.54;58.39;101116.78;5100127;27;46357;-80
2022/03/03 04:45:52;;;;;;;;;61.75;47.50;;;;;11.40;58.13;101080.69;5098808;27;45333;-79
2022/03/03 04:48:18;;;;;;;;;63.75;49.75;;;;;11.09;57.83;101031.72;5105529;27;45484;-81
2022/03/03 04:50:43;;;;;;;;;62.25;47.25;;;;;11.22;58.58;101049.91;5098902;27;45419;-81
2022/03/03 04:53:08;;;;;;;;;56.25;44.25;;;;;11.50;58.86;101098.84;5098068;27;46008;-80
2022/03/03 04:55:34;;;;;;;;;60.75;46.75;;;;;11.39;58.43;101077.13;5101838;27;45321;-79
2022/03/03 04:57:59;;;;;;;;;58.00;44.25;;;;;11.37;59.67;101080.63;5118640;27;45285;-77
2022/03/03 05:00:24;;;;;;;;;51.25;42.50;;;;;11.30;60.39;101041.19;5118723;27;45532;-77
2022/03/03 05:02:50;;;;;;;;;54.00;42.25;;;;;11.39;60.56;101069.09;5109014;27;45601;-82
2022/03/03 05:05:15;;;;;;;;;50.00;41.00;;;;;11.52;60.10;101094.44;5098464;27;45612;-80
2022/03/03 05:07:40;;;;;;;;;53.75;41.75;;;;;11.38;60.36;101094.06;5099800;27;45413;-80
2022/03/03 05:10:07;;;;;;;;;54.50;40.25;;;;;11.38;60.70;101063.72;5110077;27;45356;-82
2022/03/03 05:12:33;;;;;;;;;54.75;44.00;;;;;11.25;60.87;101057.09;5121844;27;45477;-80
2022/03/03 05:14:58;;;;;;;;;57.25;43.50;;;;;11.40;60.68;101078.03;5118593;27;45481;-78
2022/03/03 05:17:24;;;;;;;;;56.50;44.75;;;;;11.46;60.87;101091.59;5117763;27;45227;-80
2022/03/03 05:19:49;;;;;;;;;55.25;42.00;;;;;11.37;60.03;101086.00;5098082;27;45463;-75
2022/03/03 05:22:14;;;;;;;;;54.25;43.50;;;;;11.07;60.25;101014.72;5098169;27;45633;-81
2022/03/03 05:24:40;;;;;;;;;56.00;42.75;;;;;11.53;59.81;101092.66;5098512;27;45278;-79
2022/03/03 05:27:06;;;;;;;;;61.50;47.00;;;;;11.04;60.07;101009.28;5098757;27;45413;-78
2022/03/03 05:29:31;;;;;;;;;60.25;49.25;;;;;11.39;60.64;101062.84;5098759;27;45384;-74
2022/03/03 05:31:58;;;;;;;;;51.00;42.25;;;;;11.36;60.98;101052.97;5098904;27;46325;-78
2022/03/03 05:34:25;;;;;;;;;55.00;42.00;;;;;11.46;61.15;101078.22;5097696;27;45285;-77
2022/03/03 05:36:51;;;;;;;;;49.75;38.50;;;;;11.49;61.26;101078.28;5098011;27;45413;-77
2022/03/03 05:39:17;;;;;;;;;53.50;42.25;;;;;11.35;61.62;101067.22;5117882;27;45569;-78
2022/03/03 05:41:42;;;;;;;;;56.25;42.25;;;;;11.41;61.72;101072.72;5117751;27;45403;-79
2022/03/03 05:44:12;;;;;;;;;53.50;41.50;;;;;11.52;61.46;101093.53;5117735;27;45403;-79
2022/03/03 05:46:38;;;;;;;;;52.75;40.75;;;;;11.02;61.99;101011.91;5098828;27;45330;-77
2022/03/03 05:49:04;;;;;;;;;49.00;39.75;;;;;11.42;61.32;101076.31;5117707;27;45534;-81
2022/03/03 05:51:31;;;;;;;;;54.50;39.00;;;;;11.03;61.90;101004.78;5091329;27;47097;-76
2022/03/03 05:53:56;;;;;;;;;52.25;40.75;;;;;11.38;62.48;101067.31;5100839;27;45385;-74
2022/03/03 05:56:23;;;;;;;;;57.50;44.00;;;;;10.13;60.88;100865.00;5097686;27;45382;-74
2022/03/03 05:58:50;;;;;;;;;58.75;44.00;;;;;10.72;61.12;100950.44;5079439;27;45420;-74
2022/03/03 06:01:17;;;;;;;;;58.50;46.00;;;;;11.30;61.08;101062.59;5097179;27;46062;-75
2022/03/03 06:03:46;;;;;;;;;60.00;47.00;;;;;11.04;61.72;101009.28;5097446;27;45427;-73
2022/03/03 06:06:22;;;;;;;;;54.50;44.00;;;;;11.22;62.17;101044.56;5097673;27;45440;-75
2022/03/03 06:09:14;;;;;;;;;47.75;34.75;;;;;11.45;62.91;101084.44;5097434;27;45354;-79
2022/03/03 06:11:48;;;;;;;;;46.50;36.50;;;;;11.37;63.25;101067.25;5097362;27;45532;-78
2022/03/03 06:14:21;;;;;;;;;52.25;41.50;;;;;11.32;63.61;101074.22;5116826;27;45471;-78
2022/03/03 06:16:48;;;;;;;;;54.00;40.00;;;;;11.18;63.67;101037.28;5117216;27;45301;-79
2022/03/03 06:19:14;;;;;;;;;59.00;43.50;;;;;11.49;63.25;101089.00;5116945;27;45468;-79
2022/03/03 06:21:39;;;;;;;;;53.75;40.00;;;;;11.37;63.39;101080.63;5117056;27;46235;-80
2022/03/03 06:24:05;;;;;;;;;52.25;41.00;;;;;11.31;63.05;101059.94;5116818;27;45374;-78
2022/03/03 06:26:31;;;;;;;;;55.25;42.25;;;;;11.31;63.76;101067.97;5117110;27;45353;-77
2022/03/03 06:28:57;;;;;;;;;52.50;41.50;;;;;11.53;63.74;101106.03;5098610;27;45473;-73
2022/03/03 06:31:25;;;;;;;;;52.75;41.50;;;;;11.56;64.36;101103.44;5103901;27;46409;-80
2022/03/03 06:33:51;;;;;;;;;56.25;41.25;;;;;11.57;63.95;101100.81;5097764;27;45555;-83
2022/03/03 06:36:16;;;;;;;;;48.50;39.00;;;;;11.57;64.19;101107.94;5097134;27;45581;-77
2022/03/03 06:38:41;;;;;;;;;49.50;38.00;;;;;11.56;64.35;101107.03;5103836;27;45609;-78
2022/03/03 06:41:07;;;;;;;;;53.00;39.00;;;;;11.15;64.77;101047.00;5096563;27;45662;-78
2022/03/03 06:43:33;;;;;;;;;50.00;40.00;;;;;11.37;64.12;101081.53;5108563;27;45566;-77
2022/03/03 06:45:59;;;;;;;;;61.00;47.50;;;;;11.51;65.18;101108.66;5115926;27;45491;-79
2022/03/03 06:48:25;;;;;;;;;49.25;36.50;;;;;11.42;65.05;101095.06;5116162;27;45373;-79
2022/03/03 06:50:52;;;;;;;;;46.00;38.50;;;;;11.34;64.85;101108.19;5115722;27;45615;-82
2022/03/03 06:53:28;;;;;;;;;51.75;40.25;;;;;11.51;64.58;101111.34;5115326;27;45507;-77
2022/03/03 06:56:00;;;;;;;;;48.00;36.00;;;;;11.22;65.27;101081.09;5115227;27;45432;-79
2022/03/03 06:58:29;;;;;;;;;45.50;35.25;;;;;11.09;65.46;101047.75;5102917;27;45361;-78
2022/03/03 07:00:55;;;;;;;;;56.50;42.25;;;;;11.29;65.21;101080.41;5095599;27;45444;-79
2022/03/03 07:03:21;;;;;;;;;55.00;42.25;;;;;11.33;66.18;101081.41;5115628;27;45507;-79
2022/03/03 07:05:49;;;;;;;;;45.75;36.25;;;;;11.51;65.62;101118.47;5077792;27;45294;-79
2022/03/03 07:08:15;;;;;;;;;47.00;36.25;;;;;11.51;65.21;101111.34;5103441;27;45484;-77
2022/03/03 07:10:41;;;;;;;;;49.00;39.75;;;;;11.12;66.02;101041.56;5096187;27;45381;-81
2022/03/03 07:13:07;;;;;;;;;49.75;38.75;;;;;11.53;66.13;101115.00;5109870;27;45489;-78
2022/03/03 07:15:34;;;;;;;;;46.50;35.75;;;;;11.43;65.37;101108.47;5108802;27;45584;-77
2022/03/03 07:18:11;;;;;;;;;52.00;41.00;;;;;11.55;65.92;101115.00;5111753;27;45607;-82
2022/03/03 07:20:49;;;;;;;;;50.75;37.75;;;;;11.33;65.58;101087.66;5081245;27;48151;-79
2022/03/03 07:23:34;;;;;;;;;49.00;39.50;;;;;11.52;65.62;101112.28;5097788;27;45495;-74
2022/03/03 07:26:01;;;;;;;;;58.25;43.00;;;;;11.12;66.25;101044.25;5096191;27;45775;-81
2022/03/03 07:28:31;;;;;;;;;50.25;39.00;;;;;11.48;65.46;101105.91;5097364;27;45524;-74
2022/03/03 07:31:00;;;;;;;;;55.50;39.75;;;;;11.54;65.16;101107.88;5113854;27;46283;-77
2022/03/03 07:33:48;;;;;;;;;39.25;35.50;;;;;11.60;65.46;101116.06;5109674;27;45466;-80
2022/03/03 07:36:18;;;;;;;;;55.00;41.25;;;;;11.61;65.16;101113.44;5118202;27;45579;-81
2022/03/03 07:38:55;;;;;;;;;50.00;40.25;;;;;11.39;65.30;101073.56;5098384;27;45452;-79
2022/03/03 07:41:22;;;;;;;;;51.00;39.75;;;;;11.57;65.42;101111.53;5115619;27;45573;-81
2022/03/03 07:43:49;;;;;;;;;55.50;41.50;;;;;11.50;65.39;101084.53;5108575;27;45475;-77
2022/03/03 07:46:14;;;;;;;;;57.00;45.25;;;;;11.22;65.25;101057.03;5096387;27;45474;-76
2022/03/03 07:48:44;;;;;;;;;54.50;38.75;;;;;11.56;65.99;101117.72;5116118;27;45432;-80
2022/03/03 07:51:10;;;;;;;;;54.00;41.25;;;;;11.47;65.89;101104.09;5109934;27;45428;-81
2022/03/03 07:53:36;;;;;;;;;56.25;40.25;;;;;11.51;66.50;101108.66;5115253;27;45443;-79
2022/03/03 07:56:03;;;;;;;;;56.50;43.50;;;;;11.62;65.92;101117.00;5115025;27;45452;-77
2022/03/03 07:58:33;;;;;;;;;52.50;41.00;;;;;11.57;65.62;101095.47;5108952;27;45515;-77
2022/03/03 08:01:00;;;;;;;;;54.50;42.50;;;;;11.58;65.36;101088.34;5109190;27;46531;-81
2022/03/03 08:03:27;;;;;;;;;55.25;41.50;;;;;11.35;65.34;101040.47;5090307;27;45383;-77
2022/03/03 08:05:58;;;;;;;;;53.50;42.00;;;;;11.74;64.91;101105.75;5108852;27;45458;-81
2022/03/03 08:08:30;;;;;;;;;54.75;42.25;;;;;11.82;65.18;101116.66;5102654;27;45384;-80
2022/03/03 08:11:07;;;;;;;;;55.00;36.75;;;;;11.81;65.72;101115.72;5114861;27;46402;-82
2022/03/03 08:13:34;;;;;;;;;53.25;40.75;;;;;11.83;65.24;101113.09;5114893;27;45420;-81
2022/03/03 08:16:00;;;;;;;;;60.50;44.50;;;;;11.62;64.95;101072.41;5114445;27;45899;-82
2022/03/03 08:18:32;;;;;;;;;51.00;39.50;;;;;11.81;65.38;101099.66;5114314;27;45423;-77
2022/03/03 08:21:02;;;;;;;;;59.00;41.50;;;;;11.70;65.49;101075.31;5115870;27;45386;-76
2022/03/03 08:23:29;;;;;;;;;58.75;43.25;;;;;11.93;65.28;101115.22;5114502;27;45337;-79
2022/03/03 08:25:56;;;;;;;;;55.75;44.75;;;;;11.84;65.32;101097.09;5096452;27;45332;-82
2022/03/03 08:28:25;;;;;;;;;60.25;45.75;;;;;11.76;64.41;101075.47;5095101;27;45287;-79
2022/03/03 08:31:02;;;;;;;;;56.25;42.50;;;;;11.84;64.90;101089.06;5094087;27;45463;-80
2022/03/03 08:33:44;;;;;;;;;50.25;40.00;;;;;12.03;64.30;101106.56;5094141;27;45385;-80
2022/03/03 08:36:29;;;;;;;;;48.25;37.50;;;;;12.09;64.61;101103.13;5094097;27;45412;-80
2022/03/03 08:39:01;;;;;;;;;54.25;43.00;;;;;12.05;64.47;101083.38;5093588;27;45528;-78
2022/03/03 08:41:28;;;;;;;;;58.00;44.00;;;;;12.16;64.26;101092.59;5109372;27;46067;-78
2022/03/03 08:43:56;;;;;;;;;50.25;41.50;;;;;11.88;65.02;101053.47;5097757;27;45526;-80
2022/03/03 08:46:25;;;;;;;;;52.00;42.75;;;;;12.08;64.67;101082.56;5097388;27;45495;-79
2022/03/03 08:48:52;;;;;;;;;54.75;42.50;;;;;12.25;64.25;101105.31;5106017;27;45600;-74
2022/03/03 08:51:19;;;;;;;;;54.25;40.25;;;;;12.06;64.01;101074.50;5116915;27;46429;-80
2022/03/03 08:53:47;;;;;;;;;57.75;42.50;;;;;12.00;64.24;101074.34;5116694;27;45348;-80
2022/03/03 08:56:12;;;;;;;;;50.00;39.25;;;;;11.91;64.71;101060.66;5101736;27;45472;-80
2022/03/03 08:58:38;;;;;;;;;58.00;41.75;;;;;11.68;64.35;101014.56;5098651;27;45357;-79
2022/03/03 09:01:04;;;;;;;;;50.00;39.00;;;;;12.10;64.46;101086.19;5117372;27;45953;-77
2022/03/03 09:03:29;;;;;;;;;55.00;41.00;;;;;12.03;64.70;101076.16;5117036;27;45491;-81
2022/03/03 09:05:56;;;;;;;;;55.00;39.75;;;;;11.65;64.15;101003.78;5116786;27;45353;-81
2022/03/03 09:08:22;;;;;;;;;58.50;47.50;;;;;12.30;63.87;101121.50;5103524;27;45436;-78
2022/03/03 09:10:48;;;;;;;;;54.50;44.00;;;;;12.34;64.57;101118.03;5103103;27;45643;-77
2022/03/03 09:13:14;;;;;;;;;58.75;44.00;;;;;12.34;63.32;101116.28;5096791;27;45682;-79
2022/03/03 09:15:40;;;;;;;;;59.00;44.50;;;;;12.02;63.99;101061.00;5097026;27;45349;-79
2022/03/03 09:18:05;;;;;;;;;52.50;41.75;;;;;11.97;64.13;101031.41;5097318;27;45426;-77
2022/03/03 09:20:32;;;;;;;;;51.75;41.75;;;;;12.31;64.29;101077.78;5096479;27;45456;-77
2022/03/03 09:22:58;;;;;;;;;59.50;40.75;;;;;12.47;63.83;101096.06;5096409;27;45427;-77
2022/03/03 09:25:23;;;;;;;;;63.50;48.25;;;;;12.51;63.11;101100.59;5097334;27;45440;-78
2022/03/03 09:27:49;;;;;;;;;58.25;45.50;;;;;12.31;63.71;101064.41;5100227;27;45435;-79
2022/03/03 09:30:14;;;;;;;;;59.50;44.25;;;;;12.61;62.84;101122.28;5098943;27;46250;-80
2022/03/03 09:32:40;;;;;;;;;57.50;43.00;;;;;12.68;63.46;101116.19;5096563;27;45456;-78
2022/03/03 09:35:07;;;;;;;;;61.25;46.25;;;;;12.20;62.76;101028.41;5098364;27;45406;-79
2022/03/03 09:37:32;;;;;;;;;55.75;41.00;;;;;12.61;62.94;101093.69;5101438;27;45618;-80
2022/03/03 09:39:58;;;;;;;;;59.25;45.50;;;;;12.79;62.64;101121.81;5116573;27;46742;-80
2022/03/03 09:42:23;;;;;;;;;58.00;47.00;;;;;12.78;62.42;101114.63;5098010;27;45530;-78
2022/03/03 09:44:49;;;;;;;;;60.75;45.50;;;;;12.61;62.80;101079.41;5101043;27;45307;-80
2022/03/03 09:47:17;;;;;;;;;53.50;42.00;;;;;12.78;62.25;101109.28;5097133;27;45437;-75
2022/03/03 09:49:42;;;;;;;;;52.00;40.50;;;;;12.79;63.16;101109.31;5095075;27;46491;-78
2022/03/03 09:52:15;;;;;;;;;54.75;43.25;;;;;12.74;62.31;101102.94;5083044;27;46194;-80
2022/03/03 09:54:42;;;;;;;;;50.50;39.00;;;;;12.34;62.89;101030.53;5096586;27;45377;-79
2022/03/03 09:57:08;;;;;;;;;54.75;41.75;;;;;12.77;62.92;101115.50;5096287;27;45376;-79
2022/03/03 09:59:34;;;;;;;;;53.50;41.50;;;;;12.72;62.88;101091.28;5095889;27;45904;-80
2022/03/03 10:02:06;;;;;;;;;56.50;44.75;;;;;12.81;62.54;101106.66;5095804;27;45295;-73
2022/03/03 10:04:32;;;;;;;;;53.25;40.75;;;;;12.84;62.67;101107.63;5096193;27;45463;-73
2022/03/03 10:07:07;;;;;;;;;57.00;43.00;;;;;12.84;62.30;101106.75;5096247;27;45666;-79
2022/03/03 10:09:33;;;;;;;;;52.25;43.00;;;;;12.71;62.42;101089.44;5096352;27;45596;-79
2022/03/03 10:12:19;;;;;;;;;59.75;44.25;;;;;12.57;62.87;101062.31;5095692;27;45397;-75
2022/03/03 10:14:48;;;;;;;;;48.00;36.00;;;;;12.85;62.44;101111.22;5096451;27;45716;-78
2022/03/03 10:17:14;;;;;;;;;59.25;44.25;;;;;12.84;62.08;101109.41;5114547;27;45526;-75
2022/03/03 10:19:57;;;;;;;;;52.50;42.75;;;;;12.93;62.30;101112.28;5116536;27;45386;-74
2022/03/03 10:22:43;;;;;;;;;54.25;40.75;;;;;12.78;62.08;101078.00;5117151;27;45462;-77
2022/03/03 10:25:10;;;;;;;;;57.50;44.25;;;;;13.00;62.62;101099.91;5111334;27;45641;-74
2022/03/03 10:27:36;;;;;;;;;69.75;51.50;;;;;12.98;61.80;101094.50;5115261;27;45487;-74
2022/03/03 10:30:05;;;;;;;;;53.00;39.50;;;;;12.91;62.33;101077.38;5114791;27;45570;-71
2022/03/03 10:32:30;;;;;;;;;53.25;43.75;;;;;12.85;62.32;101057.56;5116258;27;45403;-76
2022/03/03 10:35:17;;;;;;;;;56.50;43.50;;;;;13.09;61.83;101087.63;5100944;27;45397;-72
2022/03/03 10:37:44;;;;;;;;;60.75;40.00;;;;;13.04;61.93;101058.91;5096803;27;45579;-78
2022/03/03 10:40:15;;;;;;;;;49.75;39.50;;;;;13.25;60.76;101098.69;5096141;27;47112;-78
2022/03/03 10:42:50;;;;;;;;;50.25;41.00;;;;;13.21;61.01;101086.97;5078127;27;45689;-79
2022/03/03 10:45:19;;;;;;;;;57.00;43.50;;;;;13.08;61.16;101055.38;5108950;27;45375;-78
2022/03/03 10:48:03;;;;;;;;;58.00;44.00;;;;;13.35;60.88;101106.09;5111794;27;45673;-71
2022/03/03 10:50:45;;;;;;;;;55.00;42.75;;;;;13.40;60.75;101100.81;5109799;27;45621;-81
2022/03/03 10:53:11;;;;;;;;;52.50;42.00;;;;;13.26;61.03;101090.69;5083166;27;45319;-78
2022/03/03 10:55:37;;;;;;;;;58.00;45.75;;;;;13.22;60.95;101086.09;5115293;27;45378;-81
2022/03/03 10:58:03;;;;;;;;;52.00;40.00;;;;;13.20;60.47;101089.63;5115348;27;45390;-77
2022/03/03 11:00:30;;;;;;;;;56.75;45.00;;;;;13.32;60.30;101103.34;5114098;27;45509;-77
2022/03/03 11:02:57;;;;;;;;;51.50;38.50;;;;;13.14;60.95;101060.91;5114948;27;45585;-80
2022/03/03 11:05:29;;;;;;;;;45.50;36.25;;;;;13.27;60.63;101068.31;5083278;27;45418;-80
2022/03/03 11:07:56;;;;;;;;;47.50;36.75;;;;;13.43;60.01;101096.41;5087690;27;45520;-79
2022/03/03 11:10:30;;;;;;;;;52.75;40.75;;;;;13.49;60.13;101086.66;5085067;27;47359;-78